This is the latest recevied weather packets stored in our database for station/object OE7BJT-13. If no packets are shown the sender has not sent any weather packets the latest 10 day(s).
| Time | Temp. | Humidity | Pressure | Rain* | Wind** | Luminosity | Snow |
|---|---|---|---|---|---|---|---|
| 1778018741 | 10.56° C | 84% | 1010 hPa | - | - | - | - |
| 1778018135 | 10.56° C | 83% | 1010 hPa | - | - | - | - |
| 1778017530 | 11.67° C | 80% | 1010 hPa | - | - | - | - |
| 1778016924 | 11.11° C | 85% | 1010 hPa | - | - | - | - |
| 1778016319 | 11.67° C | 79% | 1010 hPa | - | - | - | - |
| 1778015713 | 11.67° C | 81% | 1010 hPa | - | - | - | - |
| 1778014502 | 12.22° C | 79% | 1009 hPa | - | - | - | - |
| 1778013896 | 12.22° C | 78% | 1009 hPa | - | - | - | - |
| 1778013291 | 11.67° C | 79% | 1009 hPa | - | - | - | - |
| 1778012685 | 12.78° C | 72% | 1009 hPa | - | - | - | - |
| 1778011474 | 13.33° C | 73% | 1009 hPa | - | - | - | - |
| 1778010868 | 13.89° C | 70% | 1008 hPa | - | - | - | - |
| 1778010263 | 13.33° C | 72% | 1008 hPa | - | - | - | - |
| 1778009052 | 15° C | 61% | 1008 hPa | - | - | - | - |
| 1778008446 | 14.44° C | 65% | 1008 hPa | - | - | - | - |
| 1778007235 | 15.56° C | 58% | 1008 hPa | - | - | - | - |
| 1778006629 | 16.11° C | 60% | 1007 hPa | - | - | - | - |
| 1778006024 | 15.56° C | 64% | 1007 hPa | - | - | - | - |
| 1778005418 | 16.11° C | 63% | 1007 hPa | - | - | - | - |
| 1778004812 | 16.11° C | 64% | 1007 hPa | - | - | - | - |
| 1778004207 | 16.11° C | 66% | 1007 hPa | - | - | - | - |
| 1778002996 | 17.78° C | 61% | 1007 hPa | - | - | - | - |
| 1778002390 | 17.78° C | 63% | 1007 hPa | - | - | - | - |
| 1778001784 | 19.44° C | 45% | 1007 hPa | - | - | - | - |
| 1778001179 | 19.44° C | 46% | 1007 hPa | - | - | - | - |
* Rain since midnight (hover to see other rain measurements)
** Current wind speed in m/s (hover to see current wind gust speed)